• Join FlightAware (Why Join?)
  • Login
  • US Flag 
07:50PM EDT


 

Airport Tracker/Info


-or-


 

Live Flight TrackerFlight Track Log ✈ N2158U ✈ 02-May-2012 ✈ KENW - KGRR

Flight Track Log - Related Links

Times and Time Zones

All times are in EDT time to prevent confusion due to time zone crossing. See the N2158U flight status page for this flight to view local times or setup timezone preferences in your user account.

Time Position Orientation Groundspeed Altitude Reporting Facility
EDT Latitude Longitude Course Direction KTS MPH feet Rate Location/Type
12:19PM 42.6000 -87.9500 56° Northeast 192 221 2,200  Level KMKE
12:21PM 42.6500 -87.8500 44° Northeast 243 280 5,800 3,360 Climbing KMKE
12:22PM 42.7000 -87.7833 42° Northeast 209 241 10,400 2,220 Climbing KMKE
12:23PM 42.7619 -87.7069 62° Northeast 292 336 11,000 240 Climbing Chicago Center
12:24PM 42.8039 -87.5983 86° East 319 367 11,000  Level Chicago Center
12:25PM 42.8103 -87.4678 86° East 344 396 11,000  Level Chicago Center
12:26PM 42.8164 -87.3431 86° East 349 402 11,000  Level Chicago Center
12:27PM 42.8225 -87.2156 86° East 344 396 11,000  Level Chicago Center
12:28PM 42.8283 -87.0850 86° East 344 396 11,000  Level Chicago Center
12:29PM 42.8342 -86.9575 87° East 344 396 11,000 -360 Level Chicago Center
12:30PM 42.8397 -86.8269 87° East 339 390 10,300 -540 Descending Chicago Center
12:31PM 42.8453 -86.6994 89° East 330 380 10,000 -180 Descending Chicago Center
12:32PM 42.8464 -86.5747 86° East 317 365 10,000  Level Chicago Center
12:33PM 42.8536 -86.4469 88° East 324 373 10,000  Level Chicago Center
12:34PM 42.8567 -86.3192 87° East 331 381 10,000 -60 Level Chicago Center
12:35PM 42.8614 -86.1886 88° East 331 381 9,900 -1,080 Descending Chicago Center
12:36PM 42.8644 -86.0694 78° East 331 381 7,900 -1,500 Descending Chicago Center
12:37PM 42.8819 -85.9525 75° East 319 367 7,000 -1,320 Descending Chicago Center
12:38PM 42.9053 -85.8319 74° East 314 361 5,300 -1,020 Descending Chicago Center
12:39PM 42.9272 -85.7286 71° East 309 356 5,000 -660 Descending Chicago Center
12:40PM 42.9531 -85.6278 76° East 291 335 4,000 -900 Descending Chicago Center
12:41PM 42.9692 -85.5389 124° Southeast 260 299 3,200 -900 Descending Chicago Center
12:42PM 42.9444 -85.4894 165° South 158 182 2,300 -660 Descending Chicago Center
12:43PM 42.9106 -85.4772 183° South 163 188 1,900 -600 Descending Chicago Center
12:44PM 42.8836 -85.4789 239° Southwest 135 155 1,200 -540 Descending Chicago Center
12:45PM 42.8719 -85.5053 239° Southwest 85 98 900 -300 Descending Chicago Center